createdAt,value
2023-04-17T00:02:00.585Z,14.10
2023-04-17T00:04:27.919Z,14.10
2023-04-17T00:06:54.946Z,14.10
2023-04-17T00:09:21.980Z,14.10
2023-04-17T00:11:48.943Z,14.10
2023-04-17T00:14:15.931Z,14.10
2023-04-17T00:16:42.912Z,14.10
2023-04-17T00:19:10.115Z,14.00
2023-04-17T00:21:40.369Z,14.10
2023-04-17T00:24:07.599Z,14.00
2023-04-17T00:26:35.020Z,14.00
2023-04-17T00:29:02.371Z,14.00
2023-04-17T00:31:31.894Z,14.00
2023-04-17T00:34:01.744Z,14.00
2023-04-17T00:36:31.848Z,14.00
2023-04-17T00:38:59.323Z,14.00
2023-04-17T00:41:26.426Z,14.00
2023-04-17T00:43:53.570Z,14.00
2023-04-17T00:46:20.924Z,13.90
2023-04-17T00:48:48.469Z,13.90
2023-04-17T00:51:16.064Z,13.90
2023-04-17T00:53:43.318Z,13.90
2023-04-17T00:56:10.838Z,13.90
2023-04-17T00:58:38.080Z,13.90
2023-04-17T01:01:06.354Z,13.90
2023-04-17T01:03:34.345Z,13.90
2023-04-17T01:06:02.145Z,13.90
2023-04-17T01:08:36.408Z,13.90
2023-04-17T01:11:05.346Z,13.90
2023-04-17T01:13:32.615Z,13.90
2023-04-17T01:15:59.714Z,13.90
2023-04-17T01:18:26.718Z,13.90
2023-04-17T01:20:54.161Z,13.90
2023-04-17T01:23:21.083Z,13.80
2023-04-17T01:25:48.392Z,13.80
2023-04-17T01:28:15.693Z,13.80
2023-04-17T01:30:42.793Z,13.80
2023-04-17T01:33:12.591Z,13.80
2023-04-17T01:35:40.970Z,13.80
2023-04-17T01:38:07.978Z,13.80
2023-04-17T01:40:35.347Z,13.80
2023-04-17T01:43:02.563Z,13.70
2023-04-17T01:45:29.545Z,13.70
2023-04-17T01:47:56.923Z,13.70
2023-04-17T01:50:24.417Z,13.70
2023-04-17T01:52:51.478Z,13.70
2023-04-17T01:55:18.813Z,13.70
2023-04-17T01:57:48.274Z,13.70
2023-04-17T02:00:17.037Z,13.70
2023-04-17T02:02:44.199Z,13.80
2023-04-17T02:05:11.471Z,13.70
2023-04-17T02:07:40.104Z,13.70
2023-04-17T02:10:08.087Z,13.70
2023-04-17T02:12:36.772Z,13.80
2023-04-17T02:15:04.120Z,13.70
2023-04-17T02:17:31.560Z,13.70
2023-04-17T02:19:59.885Z,13.70
2023-04-17T02:22:30.755Z,13.70
2023-04-17T02:24:58.780Z,13.70
2023-04-17T02:27:27.160Z,13.70
2023-04-17T02:29:54.344Z,13.70
2023-04-17T02:32:22.483Z,13.70
2023-04-17T02:34:49.881Z,13.70
2023-04-17T02:37:17.581Z,13.70
2023-04-17T02:39:44.535Z,13.70
2023-04-17T02:42:13.110Z,13.70
2023-04-17T02:44:41.595Z,13.70
2023-04-17T02:47:08.899Z,13.70
2023-04-17T02:49:36.020Z,13.70
2023-04-17T02:52:02.959Z,13.70
2023-04-17T02:54:30.076Z,13.60
2023-04-17T02:56:58.640Z,13.70
2023-04-17T02:59:29.020Z,13.60
2023-04-17T03:01:59.782Z,13.60
2023-04-17T03:04:28.501Z,13.60
2023-04-17T03:06:55.913Z,13.60
2023-04-17T03:09:24.225Z,13.60
2023-04-17T03:11:52.164Z,13.60
2023-04-17T03:14:19.305Z,13.50
2023-04-17T03:16:46.377Z,13.50
2023-04-17T03:19:13.582Z,13.50
2023-04-17T03:21:40.825Z,13.50
2023-04-17T03:24:08.067Z,13.50
2023-04-17T03:26:35.485Z,13.50
2023-04-17T03:29:08.209Z,13.50
2023-04-17T03:31:35.751Z,13.50
2023-04-17T03:34:03.733Z,13.50
2023-04-17T03:36:31.080Z,13.50
2023-04-17T03:38:58.223Z,13.50
2023-04-17T03:41:25.434Z,13.50
2023-04-17T03:43:52.906Z,13.50
2023-04-17T03:46:20.338Z,13.50
2023-04-17T03:48:51.398Z,13.50
2023-04-17T03:51:18.456Z,13.50
2023-04-17T03:53:46.347Z,13.50
2023-04-17T03:56:13.937Z,13.50
2023-04-17T03:58:43.643Z,13.50
2023-04-17T04:01:14.800Z,13.50
2023-04-17T04:03:59.667Z,13.40
2023-04-17T04:06:29.938Z,13.40
2023-04-17T04:08:59.166Z,13.40
2023-04-17T04:11:27.237Z,13.40
2023-04-17T04:13:54.918Z,13.40
2023-04-17T04:16:22.012Z,13.40
2023-04-17T04:18:50.488Z,13.40
2023-04-17T04:21:18.561Z,13.40
2023-04-17T04:23:45.667Z,13.40
2023-04-17T04:26:17.089Z,13.40
2023-04-17T04:28:50.124Z,13.40
2023-04-17T04:31:32.080Z,13.40
2023-04-17T04:34:02.420Z,13.40
2023-04-17T04:36:30.346Z,13.40
2023-04-17T04:39:20.706Z,13.40
2023-04-17T04:41:50.713Z,13.40
2023-04-17T04:44:20.370Z,13.40
2023-04-17T04:46:53.083Z,13.40
2023-04-17T04:49:20.600Z,13.40
2023-04-17T04:51:47.830Z,13.40
2023-04-17T04:54:14.941Z,13.40
2023-04-17T04:56:49.168Z,13.30
2023-04-17T04:59:16.268Z,13.30
2023-04-17T05:01:49.788Z,13.30
2023-04-17T05:04:20.890Z,13.30
2023-04-17T05:06:51.878Z,13.30
2023-04-17T05:09:19.045Z,13.30
2023-04-17T05:11:48.369Z,13.30
2023-04-17T05:14:15.940Z,13.30
2023-04-17T05:16:43.440Z,13.30
2023-04-17T05:19:11.526Z,13.30
2023-04-17T05:21:53.946Z,13.30
2023-04-17T05:24:22.771Z,13.30
2023-04-17T05:26:50.536Z,13.30
2023-04-17T05:29:18.120Z,13.30
2023-04-17T05:31:45.607Z,13.30
2023-04-17T05:34:30.237Z,13.30
2023-04-17T05:37:09.102Z,13.40
2023-04-17T05:39:36.378Z,13.30
2023-04-17T05:42:03.919Z,13.40
2023-04-17T05:44:32.233Z,13.30
2023-04-17T05:47:02.811Z,13.30
2023-04-17T05:49:31.136Z,13.30
2023-04-17T05:51:58.197Z,13.30
2023-04-17T05:54:25.402Z,13.30
2023-04-17T05:56:53.186Z,13.30
2023-04-17T05:59:21.200Z,13.30
2023-04-17T06:01:50.566Z,13.30
2023-04-17T06:04:21.223Z,13.30
2023-04-17T06:06:50.704Z,13.30
2023-04-17T06:09:18.580Z,13.30
2023-04-17T06:11:45.585Z,13.30
2023-04-17T06:14:12.880Z,13.30
2023-04-17T06:16:40.877Z,13.30
2023-04-17T06:19:09.231Z,13.30
2023-04-17T06:21:36.197Z,13.30
2023-04-17T06:24:03.291Z,13.30
2023-04-17T06:26:30.498Z,13.40
2023-04-17T06:28:57.846Z,13.30
2023-04-17T06:31:25.856Z,13.40
2023-04-17T06:33:53.583Z,13.50
2023-04-17T06:36:26.246Z,13.50
2023-04-17T06:38:56.726Z,13.50
2023-04-17T06:41:23.977Z,13.50
2023-04-17T06:43:54.714Z,13.60
2023-04-17T06:46:24.741Z,13.60
2023-04-17T06:48:52.869Z,13.50
2023-04-17T06:51:21.916Z,13.60
2023-04-17T06:53:49.768Z,13.60
2023-04-17T06:56:16.957Z,13.60
2023-04-17T06:58:46.622Z,13.60
2023-04-17T07:01:14.505Z,13.60
2023-04-17T07:03:43.097Z,13.60
2023-04-17T07:06:10.529Z,13.60
2023-04-17T07:08:37.551Z,13.60
2023-04-17T07:11:04.624Z,13.60
2023-04-17T07:13:34.814Z,13.60
2023-04-17T07:16:02.155Z,13.60
2023-04-17T07:18:31.992Z,13.60
2023-04-17T07:20:59.188Z,13.60
2023-04-17T07:23:26.168Z,13.60
2023-04-17T07:25:53.295Z,13.60
2023-04-17T07:28:20.658Z,13.60
2023-04-17T07:30:48.161Z,13.50
2023-04-17T07:33:17.981Z,13.60
2023-04-17T07:35:45.712Z,13.60
2023-04-17T07:38:12.791Z,13.60
2023-04-17T07:40:39.910Z,13.60
2023-04-17T07:43:08.028Z,13.60
2023-04-17T07:45:37.632Z,13.70
2023-04-17T07:48:06.352Z,13.70
2023-04-17T07:50:33.417Z,13.80
2023-04-17T07:53:01.094Z,13.70
2023-04-17T07:55:29.321Z,13.80
2023-04-17T07:58:01.772Z,13.90
2023-04-17T08:00:29.432Z,14.00
2023-04-17T08:02:56.790Z,14.10
2023-04-17T08:05:24.614Z,14.20
2023-04-17T08:07:51.803Z,14.30
2023-04-17T08:10:18.978Z,14.40
2023-04-17T08:12:46.028Z,14.50
2023-04-17T08:15:13.009Z,14.50
2023-04-17T08:17:41.443Z,14.60
2023-04-17T08:20:11.690Z,14.60
2023-04-17T08:22:40.690Z,14.60
2023-04-17T08:25:09.525Z,14.50
2023-04-17T08:27:41.022Z,14.60
2023-04-17T08:30:12.880Z,14.60
2023-04-17T08:32:43.101Z,14.60
2023-04-17T08:35:14.330Z,14.70
2023-04-17T08:37:42.953Z,14.80
2023-04-17T08:40:13.676Z,14.90
2023-04-17T08:42:42.323Z,15.00
2023-04-17T08:45:13.991Z,15.00
2023-04-17T08:47:43.397Z,15.10
2023-04-17T08:50:13.805Z,15.10
2023-04-17T08:52:44.870Z,15.20
2023-04-17T08:55:25.528Z,15.30
2023-04-17T08:57:56.354Z,15.40
2023-04-17T09:00:28.701Z,15.40
2023-04-17T09:02:57.341Z,15.50
2023-04-17T09:05:26.599Z,15.50
2023-04-17T09:08:14.619Z,15.50
2023-04-17T09:10:45.727Z,15.60
2023-04-17T09:13:18.715Z,15.60
2023-04-17T09:15:47.938Z,15.70
2023-04-17T09:18:28.120Z,15.80
2023-04-17T09:20:57.715Z,15.90
2023-04-17T09:23:24.789Z,15.90
2023-04-17T09:26:10.913Z,15.90
2023-04-17T09:28:41.607Z,15.90
2023-04-17T09:31:17.765Z,15.90
2023-04-17T09:34:01.873Z,15.80
2023-04-17T09:36:31.532Z,15.80
2023-04-17T09:39:05.131Z,15.80
2023-04-17T09:41:36.397Z,15.80
2023-04-17T09:44:06.458Z,15.80
2023-04-17T09:46:46.114Z,15.70
2023-04-17T09:49:18.995Z,15.60
2023-04-17T09:51:46.825Z,15.60
2023-04-17T09:54:20.225Z,15.50
2023-04-17T09:56:50.331Z,15.40
2023-04-17T09:59:19.809Z,15.40
2023-04-17T10:01:46.805Z,15.30
2023-04-17T10:04:14.203Z,15.30
2023-04-17T10:06:41.772Z,15.30
2023-04-17T10:09:09.341Z,15.40
2023-04-17T10:11:39.120Z,15.40
2023-04-17T10:14:32.822Z,15.40
2023-04-17T10:16:59.892Z,15.40
2023-04-17T10:19:38.638Z,15.40
2023-04-17T10:22:20.807Z,15.40
2023-04-17T10:25:14.240Z,15.30
2023-04-17T10:27:41.609Z,15.30
2023-04-17T10:30:10.588Z,15.20
2023-04-17T10:32:37.686Z,15.10
2023-04-17T10:35:20.601Z,15.10
2023-04-17T10:37:47.762Z,15.10
2023-04-17T10:40:22.496Z,15.00
2023-04-17T10:43:32.308Z,14.90
2023-04-17T10:46:08.482Z,15.00
2023-04-17T10:48:39.249Z,14.90
2023-04-17T10:51:22.395Z,14.90
2023-04-17T10:54:01.960Z,14.90
2023-04-17T10:56:35.169Z,14.90
2023-04-17T10:59:08.957Z,14.90
2023-04-17T11:01:48.227Z,14.90
2023-04-17T11:04:32.035Z,15.00
2023-04-17T11:06:59.182Z,15.00
2023-04-17T11:09:28.702Z,15.00
2023-04-17T11:11:59.350Z,15.00
2023-04-17T11:14:27.286Z,15.00
2023-04-17T11:16:56.145Z,15.00
2023-04-17T11:19:24.759Z,15.10
2023-04-17T11:22:01.392Z,15.10
2023-04-17T11:24:31.708Z,15.10
2023-04-17T11:27:00.244Z,15.20
2023-04-17T11:29:27.849Z,15.20
2023-04-17T11:32:00.528Z,15.30
2023-04-17T11:34:27.843Z,15.30
2023-04-17T11:36:57.958Z,15.30
2023-04-17T11:39:27.115Z,15.20
2023-04-17T11:41:54.583Z,15.20
2023-04-17T11:44:21.756Z,15.20
2023-04-17T11:46:56.613Z,15.20
2023-04-17T11:49:32.243Z,15.10
2023-04-17T11:52:08.099Z,15.10
2023-04-17T11:54:37.408Z,15.10
2023-04-17T11:57:13.307Z,15.10
2023-04-17T11:59:42.388Z,15.00
2023-04-17T12:02:11.130Z,15.00
2023-04-17T12:04:40.040Z,15.00
2023-04-17T12:07:08.340Z,14.90
2023-04-17T12:09:36.574Z,14.90
2023-04-17T12:12:08.103Z,14.90
2023-04-17T12:14:35.935Z,14.90
2023-04-17T12:17:03.949Z,14.90
2023-04-17T12:19:32.120Z,15.00
2023-04-17T12:21:59.660Z,15.00
2023-04-17T12:24:28.190Z,15.00
2023-04-17T12:27:02.074Z,14.90
2023-04-17T12:29:43.060Z,15.00
2023-04-17T12:32:11.853Z,15.00
2023-04-17T12:34:38.909Z,14.90
2023-04-17T12:37:05.967Z,14.90
2023-04-17T12:39:33.429Z,14.90
2023-04-17T12:42:00.405Z,14.80
2023-04-17T12:44:27.412Z,14.80
2023-04-17T12:46:54.617Z,14.80
2023-04-17T12:49:23.657Z,14.70
2023-04-17T12:51:51.546Z,14.60
2023-04-17T12:54:18.904Z,14.60
2023-04-17T12:56:47.495Z,14.60
2023-04-17T12:59:14.985Z,14.60
2023-04-17T13:01:42.715Z,14.60
2023-04-17T13:04:09.907Z,14.60
2023-04-17T13:06:36.998Z,14.60
2023-04-17T13:09:04.849Z,14.60
2023-04-17T13:14:23.971Z,14.60
2023-04-17T13:16:51.235Z,14.60
2023-04-17T13:19:18.337Z,14.50
2023-04-17T13:21:45.615Z,14.50
2023-04-17T13:24:17.249Z,14.50
2023-04-17T13:26:44.948Z,14.50
2023-04-17T13:29:12.126Z,14.50
2023-04-17T13:31:39.246Z,14.50
2023-04-17T13:34:06.849Z,14.50
2023-04-17T13:36:34.190Z,14.50
2023-04-17T13:39:01.225Z,14.50
2023-04-17T13:41:31.538Z,14.50
2023-04-17T13:43:58.557Z,14.50
2023-04-17T13:46:25.621Z,14.50
2023-04-17T13:48:52.697Z,14.50
2023-04-17T13:51:19.719Z,14.50
2023-04-17T13:53:46.745Z,14.40
2023-04-17T13:56:13.846Z,14.40
2023-04-17T13:58:41.790Z,14.40
2023-04-17T14:01:11.899Z,14.40
2023-04-17T14:03:41.744Z,14.40
2023-04-17T14:06:10.696Z,14.50
2023-04-17T14:08:42.896Z,14.50
2023-04-17T14:11:11.310Z,14.50
2023-04-17T14:13:38.541Z,14.60
2023-04-17T14:16:06.003Z,14.60
2023-04-17T14:18:33.887Z,14.60
2023-04-17T14:21:02.193Z,14.60
2023-04-17T14:23:29.725Z,14.60
2023-04-17T14:25:56.804Z,14.60
2023-04-17T14:28:27.006Z,14.60
2023-04-17T14:30:54.024Z,14.60
2023-04-17T14:33:22.173Z,14.60
2023-04-17T14:35:49.297Z,14.60
2023-04-17T14:38:16.528Z,14.60
2023-04-17T14:40:43.752Z,14.60
2023-04-17T14:43:11.051Z,14.60
2023-04-17T14:45:38.288Z,14.50
2023-04-17T14:48:05.822Z,14.50
2023-04-17T14:50:33.918Z,14.50
2023-04-17T14:53:01.285Z,14.40
2023-04-17T14:55:29.193Z,14.30
2023-04-17T14:57:56.333Z,14.30
2023-04-17T15:00:24.557Z,14.30
2023-04-17T15:02:52.065Z,14.20
2023-04-17T15:05:21.705Z,14.20
2023-04-17T15:07:50.744Z,14.20
2023-04-17T15:10:17.952Z,14.20
2023-04-17T15:12:44.960Z,14.20
2023-04-17T15:15:12.335Z,14.10
2023-04-17T15:17:39.375Z,14.10
2023-04-17T15:20:07.517Z,14.10
2023-04-17T15:22:34.759Z,14.10
2023-04-17T15:25:01.736Z,14.10
2023-04-17T15:27:28.690Z,14.00
2023-04-17T15:29:55.817Z,14.00
2023-04-17T15:32:22.937Z,14.00
2023-04-17T15:34:50.207Z,14.00
2023-04-17T15:37:17.161Z,14.00
2023-04-17T15:39:45.898Z,13.90
2023-04-17T15:42:15.971Z,13.90
2023-04-17T15:44:45.184Z,13.90
2023-04-17T15:47:12.369Z,13.90
2023-04-17T15:49:39.343Z,13.90
2023-04-17T15:52:07.128Z,13.80
2023-04-17T15:54:34.127Z,13.80
2023-04-17T15:57:01.125Z,13.80
2023-04-17T15:59:28.273Z,13.80
2023-04-17T16:01:55.492Z,13.80
2023-04-17T16:04:22.870Z,13.80
2023-04-17T16:06:54.219Z,13.80
2023-04-17T16:09:25.399Z,13.80
2023-04-17T16:11:54.002Z,13.80
2023-04-17T16:14:21.612Z,13.80
2023-04-17T16:16:48.545Z,13.80
2023-04-17T16:19:16.162Z,13.70
2023-04-17T16:21:45.758Z,13.70
2023-04-17T16:24:21.260Z,13.70
2023-04-17T16:27:00.404Z,13.70
2023-04-17T16:29:33.099Z,13.70
2023-04-17T16:32:04.869Z,13.60
2023-04-17T16:34:32.143Z,13.60
2023-04-17T16:37:03.595Z,13.60
2023-04-17T16:39:30.726Z,13.60
2023-04-17T16:41:57.847Z,13.60
2023-04-17T16:44:28.533Z,13.60
2023-04-17T16:47:12.594Z,13.60
2023-04-17T16:49:47.172Z,13.60
2023-04-17T16:52:14.260Z,13.60
2023-04-17T16:54:43.486Z,13.60
2023-04-17T16:57:11.630Z,13.60
2023-04-17T16:59:41.271Z,13.50
2023-04-17T17:02:08.472Z,13.50
2023-04-17T17:04:37.790Z,13.50
2023-04-17T17:07:06.191Z,13.50
2023-04-17T17:09:33.343Z,13.50
2023-04-17T17:12:00.800Z,13.50
2023-04-17T17:14:27.815Z,13.50
2023-04-17T17:16:54.992Z,13.50
2023-04-17T17:19:25.330Z,13.40
2023-04-17T17:21:55.189Z,13.50
2023-04-17T17:24:22.192Z,13.40
2023-04-17T17:26:49.260Z,13.50
2023-04-17T17:29:16.977Z,13.40
2023-04-17T17:31:44.067Z,13.40
2023-04-17T17:34:25.471Z,13.40
2023-04-17T17:36:54.097Z,13.40
2023-04-17T17:39:22.183Z,13.40
2023-04-17T17:41:50.708Z,13.40
2023-04-17T17:44:17.936Z,13.40
2023-04-17T17:46:46.357Z,13.40
2023-04-17T17:49:17.697Z,13.40
2023-04-17T17:51:44.835Z,13.30
2023-04-17T17:54:21.357Z,13.30
2023-04-17T17:56:49.239Z,13.30
2023-04-17T17:59:18.792Z,13.30
2023-04-17T18:01:46.765Z,13.30
2023-04-17T18:04:14.272Z,13.30
2023-04-17T18:06:41.777Z,13.30
2023-04-17T18:09:08.778Z,13.30
2023-04-17T18:11:36.987Z,13.30
2023-04-17T18:14:03.969Z,13.30
2023-04-17T18:16:34.074Z,13.30
2023-04-17T18:19:03.574Z,13.30
2023-04-17T18:21:34.088Z,13.30
2023-04-17T18:24:01.930Z,13.30
2023-04-17T18:26:29.050Z,13.30
2023-04-17T18:28:56.140Z,13.30
2023-04-17T18:31:26.029Z,13.30
2023-04-17T18:33:53.354Z,13.30
2023-04-17T18:36:22.743Z,13.30
2023-04-17T18:38:49.800Z,13.30
2023-04-17T18:41:17.359Z,13.30
2023-04-17T18:43:44.311Z,13.30
2023-04-17T18:46:11.356Z,13.30
2023-04-17T18:48:38.509Z,13.20
2023-04-17T18:51:15.038Z,13.20
2023-04-17T18:53:42.221Z,13.20
2023-04-17T18:56:10.867Z,13.20
2023-04-17T18:58:40.404Z,13.20
2023-04-17T19:01:10.394Z,13.20
2023-04-17T19:03:38.337Z,13.10
2023-04-17T19:06:06.805Z,13.20
2023-04-17T19:08:34.174Z,13.20
2023-04-17T19:11:01.736Z,13.20
2023-04-17T19:13:28.942Z,13.10
2023-04-17T19:15:56.367Z,13.10
2023-04-17T19:18:24.012Z,13.10
2023-04-17T19:20:51.082Z,13.10
2023-04-17T19:23:18.060Z,13.10
2023-04-17T19:25:45.082Z,13.10
2023-04-17T19:28:13.412Z,13.10
2023-04-17T19:30:40.411Z,13.10
2023-04-17T19:33:07.681Z,13.10
2023-04-17T19:35:34.705Z,13.10
2023-04-17T19:38:02.078Z,13.10
2023-04-17T19:40:29.316Z,13.00
2023-04-17T19:43:01.090Z,13.00
2023-04-17T19:45:28.547Z,13.00
2023-04-17T19:47:57.195Z,13.00
2023-04-17T19:50:27.350Z,13.00
2023-04-17T19:52:55.667Z,13.00
2023-04-17T19:55:22.707Z,13.00
2023-04-17T19:57:51.073Z,13.00
2023-04-17T20:00:18.294Z,13.00
2023-04-17T20:02:45.642Z,13.00
2023-04-17T20:05:13.839Z,12.90
2023-04-17T20:07:40.801Z,12.90
2023-04-17T20:10:08.218Z,12.90
2023-04-17T20:12:35.613Z,12.90
2023-04-17T20:15:02.753Z,12.90
2023-04-17T20:17:29.911Z,12.90
2023-04-17T20:19:57.254Z,12.90
2023-04-17T20:22:26.320Z,12.90
2023-04-17T20:24:53.729Z,12.90
2023-04-17T20:27:20.753Z,12.90
2023-04-17T20:29:47.744Z,12.90
2023-04-17T20:32:15.214Z,12.90
2023-04-17T20:34:42.218Z,12.90
2023-04-17T20:37:09.638Z,12.90
2023-04-17T20:39:36.767Z,12.90
2023-04-17T20:42:06.334Z,12.90
2023-04-17T20:44:34.499Z,12.90
2023-04-17T20:47:04.047Z,12.90
2023-04-17T20:49:33.330Z,12.90
2023-04-17T20:52:02.200Z,12.90
2023-04-17T20:54:29.524Z,12.90
2023-04-17T20:56:57.121Z,12.90
2023-04-17T20:59:24.171Z,12.90
2023-04-17T21:01:52.893Z,12.90
2023-04-17T21:04:20.165Z,12.90
2023-04-17T21:06:47.401Z,12.90
2023-04-17T21:09:16.493Z,12.80
2023-04-17T21:11:43.832Z,12.80
2023-04-17T21:14:13.818Z,12.80
2023-04-17T21:16:44.856Z,12.80
2023-04-17T21:19:12.404Z,12.80
2023-04-17T21:21:39.374Z,12.80
2023-04-17T21:24:06.572Z,12.80
2023-04-17T21:26:33.566Z,12.80
2023-04-17T21:29:00.602Z,12.80
2023-04-17T21:31:27.631Z,12.80
2023-04-17T21:33:54.674Z,12.80
2023-04-17T21:36:22.595Z,12.80
2023-04-17T21:38:49.586Z,12.80
2023-04-17T21:41:17.813Z,12.80
2023-04-17T21:43:44.861Z,12.90
2023-04-17T21:46:12.122Z,12.80
2023-04-17T21:48:39.971Z,12.90
2023-04-17T21:51:07.227Z,12.80
2023-04-17T21:53:35.907Z,12.80
2023-04-17T21:56:05.607Z,12.80
2023-04-17T21:58:33.836Z,12.80
2023-04-17T22:01:00.982Z,12.80
2023-04-17T22:03:28.217Z,12.80
2023-04-17T22:05:56.881Z,12.80
2023-04-17T22:08:24.486Z,12.80
2023-04-17T22:10:52.860Z,12.80
2023-04-17T22:13:19.831Z,12.80
2023-04-17T22:15:48.346Z,12.80
2023-04-17T22:18:15.724Z,12.80
2023-04-17T22:20:42.838Z,12.80
2023-04-17T22:23:10.986Z,12.80
2023-04-17T22:25:38.053Z,12.80
2023-04-17T22:28:05.342Z,12.80
2023-04-17T22:30:33.826Z,12.80
2023-04-17T22:33:00.878Z,12.80
2023-04-17T22:35:27.911Z,12.90
2023-04-17T22:37:54.866Z,12.90
2023-04-17T22:40:27.620Z,12.90
2023-04-17T22:42:54.640Z,12.90
2023-04-17T22:45:21.745Z,12.90
2023-04-17T22:47:48.769Z,12.90
2023-04-17T22:50:15.884Z,12.90
2023-04-17T22:52:43.999Z,12.90
2023-04-17T22:55:11.413Z,12.90
2023-04-17T22:57:38.533Z,12.90
2023-04-17T23:00:08.053Z,12.90
2023-04-17T23:02:35.508Z,12.90
2023-04-17T23:05:02.777Z,12.90
2023-04-17T23:07:29.895Z,12.90
2023-04-17T23:09:56.906Z,13.00
2023-04-17T23:12:24.157Z,13.00
2023-04-17T23:14:51.084Z,13.00
2023-04-17T23:17:18.055Z,13.00
2023-04-17T23:19:48.625Z,13.00
2023-04-17T23:22:15.624Z,13.00
2023-04-17T23:24:42.648Z,13.00
2023-04-17T23:27:09.622Z,12.90
2023-04-17T23:29:36.564Z,12.90
2023-04-17T23:32:04.609Z,12.90
2023-04-17T23:34:31.558Z,12.90
2023-04-17T23:37:00.322Z,12.90
2023-04-17T23:39:27.363Z,12.90
2023-04-17T23:41:54.844Z,12.90
2023-04-17T23:44:21.881Z,12.90
2023-04-17T23:46:48.985Z,12.90
2023-04-17T23:49:16.094Z,12.90
2023-04-17T23:51:45.376Z,12.90
2023-04-17T23:54:12.573Z,12.90
2023-04-17T23:56:43.404Z,12.90
2023-04-17T23:59:10.473Z,12.90
